Saturday, November 18, 2017, 6:58 AM EST
Back to Local

KJYO, Leesburg / Godfrey

Location: Leesburg, VA, United States Lat: 39.083
Local Time: 6:58 AM EST (11:58 GMT) Lon: -77.567
Time Zone: US/Eastern Elev: 390 ft

Show me the last for .
Show Decoded

2017-11-18 06:35 METAR KJYO 181135Z AUTO 19006KT 10SM CLR 02/00 A2991 RMK AO2 =
2017-11-18 06:15 METAR KJYO 181115Z AUTO 18006KT 10SM CLR 03/00 A2992 RMK AO2 =
2017-11-18 05:55 METAR KJYO 181055Z AUTO 17007KT 10SM CLR 02/00 A2993 RMK AO2 =
2017-11-18 05:35 METAR KJYO 181035Z AUTO 20004KT 10SM CLR 02/00 A2994 RMK AO2 =
2017-11-18 05:15 METAR KJYO 181015Z AUTO 18003KT 10SM CLR 02/00 A2994 RMK AO2 =
2017-11-18 04:55 METAR KJYO 180955Z AUTO 19006KT 10SM CLR 02/00 A2996 RMK AO2 =
2017-11-18 04:35 METAR KJYO 180935Z AUTO 21004KT 10SM CLR 02/00 A2997 RMK AO2 =
2017-11-18 04:15 METAR KJYO 180915Z AUTO 18007KT 10SM CLR 02/00 A2997 RMK AO2 =
2017-11-18 03:55 METAR KJYO 180855Z AUTO 18004KT 10SM CLR 01/00 A2998 RMK AO2 =
2017-11-18 03:35 METAR KJYO 180835Z AUTO 00000KT 10SM CLR 01/00 A2998 RMK AO2 =
2017-11-18 03:15 METAR KJYO 180815Z AUTO 21003KT 10SM CLR 01/00 A2999 RMK AO2 =
2017-11-18 02:55 METAR KJYO 180755Z AUTO 19005KT 10SM CLR 01/00 A3000 RMK AO2 =
2017-11-18 02:35 METAR KJYO 180735Z AUTO 20004KT 10SM CLR 01/00 A3001 RMK AO2 =
2017-11-18 02:15 METAR KJYO 180715Z AUTO 18005KT 10SM CLR 02/00 A3001 RMK AO2 =
2017-11-18 01:55 METAR KJYO 180655Z AUTO 19003KT 10SM CLR 02/00 A3003 RMK AO2 =
2017-11-18 01:35 METAR KJYO 180635Z AUTO 21004KT 10SM CLR 00/00 A3003 RMK AO2 =
2017-11-18 01:15 METAR KJYO 180615Z AUTO 19004KT 10SM CLR 01/00 A3004 RMK AO2 =
2017-11-18 00:55 METAR KJYO 180555Z AUTO 17004KT 10SM CLR 04/00 A3006 RMK AO2 =
2017-11-18 00:35 METAR KJYO 180535Z AUTO 18004KT 10SM CLR 03/00 A3006 RMK AO2 =
2017-11-18 00:15 METAR KJYO 180515Z AUTO 00000KT 10SM CLR 02/00 A3008 RMK AO2 =
2017-11-17 23:55 METAR KJYO 180455Z AUTO 19003KT 10SM CLR 01/00 A3009 RMK AO2 =
2017-11-17 23:35 METAR KJYO 180435Z AUTO 18004KT 10SM CLR 03/00 A3009 RMK AO2 =
2017-11-17 23:15 METAR KJYO 180415Z AUTO 20003KT 10SM CLR 02/00 A3011 RMK AO2 =
2017-11-17 22:55 METAR KJYO 180355Z AUTO 23004KT 10SM CLR 02/00 A3011 RMK AO2 =
2017-11-17 22:35 METAR KJYO 180335Z AUTO 00000KT 10SM CLR 01/00 A3012 RMK AO2 =
2017-11-17 22:15 METAR KJYO 180315Z AUTO 24003KT 10SM CLR 01/00 A3012 RMK AO2 =
2017-11-17 21:55 METAR KJYO 180255Z AUTO 20003KT 10SM CLR 01/00 A3012 RMK AO2 =
2017-11-17 21:35 METAR KJYO 180235Z AUTO 00000KT 10SM CLR 02/00 A3012 RMK AO2 =
2017-11-17 21:15 METAR KJYO 180215Z AUTO 00000KT 10SM CLR 02/00 A3012 RMK AO2 =
2017-11-17 20:55 METAR KJYO 180155Z AUTO 00000KT 10SM CLR 02/00 A3011 RMK AO2 =
2017-11-17 20:35 METAR KJYO 180135Z AUTO 00000KT 10SM CLR 02/00 A3012 RMK AO2 =
2017-11-17 20:15 METAR KJYO 180115Z AUTO 00000KT 10SM CLR 03/00 A3012 RMK AO2 =
2017-11-17 19:55 METAR KJYO 180055Z AUTO 00000KT 10SM CLR 03/00 A3012 RMK AO2 =
2017-11-17 19:35 METAR KJYO 180035Z AUTO 22003KT 10SM CLR 03/00 A3013 RMK AO2 =
2017-11-17 19:15 METAR KJYO 180015Z AUTO 00000KT 10SM CLR 04/00 A3013 RMK AO2 =
2017-11-17 18:55 METAR KJYO 172355Z AUTO 00000KT 10SM CLR 04/00 A3014 RMK AO2 =
2017-11-17 18:35 METAR KJYO 172335Z AUTO 00000KT 10SM CLR 05/00 A3014 RMK AO2 =
2017-11-17 18:15 METAR KJYO 172315Z AUTO 21004KT 10SM CLR 07/00 A3014 RMK AO2 =
2017-11-17 17:55 METAR KJYO 172255Z AUTO 00000KT 10SM CLR 07/00 A3014 RMK AO2 =
2017-11-17 17:35 METAR KJYO 172235Z AUTO 30003KT 10SM CLR 08/00 A3015 RMK AO2 =
2017-11-17 17:15 METAR KJYO 172215Z AUTO 28003KT 10SM CLR 08/00 A3015 RMK AO2 =
2017-11-17 16:55 METAR KJYO 172155Z AUTO 00000KT 10SM CLR 09/00 A3015 RMK AO2 =
2017-11-17 16:35 METAR KJYO 172135Z AUTO 26003KT 10SM CLR 10/00 A3016 RMK AO2 =
2017-11-17 16:15 METAR KJYO 172115Z AUTO 26003KT 10SM CLR 10/00 A3015 RMK AO2 =
2017-11-17 15:55 METAR KJYO 172055Z AUTO 32004KT 10SM CLR 11/00 A3016 RMK AO2 =
2017-11-17 15:35 METAR KJYO 172035Z AUTO 32005KT 10SM CLR 10/00 A3016 RMK AO2 =
2017-11-17 15:15 METAR KJYO 172015Z AUTO 33006KT 10SM CLR 11/00 A3015 RMK AO2 =
2017-11-17 14:55 METAR KJYO 171955Z AUTO 34005KT 10SM CLR 11/M01 A3016 RMK AO2 =
2017-11-17 14:35 METAR KJYO 171935Z AUTO 33006KT 10SM CLR 11/00 A3016 RMK AO2 =
2017-11-17 14:15 METAR KJYO 171915Z AUTO 31008KT 10SM CLR 12/00 A3017 RMK AO2 =
2017-11-17 13:55 METAR KJYO 171855Z AUTO 32008KT 10SM CLR 11/M01 A3018 RMK AO2 =
2017-11-17 13:35 METAR KJYO 171835Z AUTO 34007KT 10SM CLR 11/00 A3018 RMK AO2 =
2017-11-17 13:15 METAR KJYO 171815Z AUTO 03006KT 10SM CLR 11/M01 A3018 RMK AO2 =
2017-11-17 12:55 METAR KJYO 171755Z AUTO 35011G15KT 10SM CLR 11/M01 A3018 RMK AO2 =
2017-11-17 12:35 METAR KJYO 171735Z AUTO 34010G14KT 10SM CLR 11/00 A3019 RMK AO2 =
2017-11-17 12:15 METAR KJYO 171715Z AUTO 34010G17KT 10SM CLR 10/00 A3020 RMK AO2 =
2017-11-17 11:55 METAR KJYO 171655Z AUTO 32009G14KT 10SM CLR 10/00 A3022 RMK AO2 =
2017-11-17 11:35 METAR KJYO 171635Z AUTO 33012G15KT 10SM CLR 10/00 A3022 RMK AO2 =
2017-11-17 11:15 METAR KJYO 171615Z AUTO 32011KT 10SM CLR 10/00 A3022 RMK AO2 =
2017-11-17 10:55 METAR KJYO 171555Z AUTO 33012KT 10SM CLR 09/00 A3023 RMK AO2 =
2017-11-17 10:35 METAR KJYO 171535Z AUTO 33014KT 10SM CLR 08/00 A3024 RMK AO2 =
2017-11-17 10:15 METAR KJYO 171515Z AUTO 32014G21KT 10SM CLR 08/00 A3024 RMK AO2 =
2017-11-17 09:55 METAR KJYO 171455Z AUTO 34010G20KT 10SM CLR 07/00 A3023 RMK AO2 =
2017-11-17 09:35 METAR KJYO 171435Z AUTO 34013G22KT 10SM CLR 07/00 A3022 RMK AO2 =
2017-11-17 09:15 METAR KJYO 171415Z AUTO 32020G25KT 10SM CLR 07/00 A3021 RMK AO2 =
2017-11-17 08:55 METAR KJYO 171355Z AUTO 35015G18KT 10SM CLR 07/00 A3022 RMK AO2 =
2017-11-17 08:35 METAR KJYO 171335Z AUTO 34010G15KT 10SM CLR 06/00 A3022 RMK AO2 =
2017-11-17 08:15 METAR KJYO 171315Z AUTO 34007KT 10SM CLR 06/00 A3022 RMK AO2 =
2017-11-17 07:55 METAR KJYO 171255Z AUTO 32010KT 10SM CLR 05/00 A3022 RMK AO2 =
2017-11-17 07:35 METAR KJYO 171235Z AUTO 32009KT 10SM CLR 04/00 A3021 RMK AO2 =
2017-11-17 07:15 METAR KJYO 171215Z AUTO 31006KT 10SM CLR 03/00 A3021 RMK AO2 =

Support USWX by starting your Amazon purchase here.